Dades meteomassalio
Diari Summary for Gener 27, 2018 Units:  Metric    English   Both
« Previous Day
Next Day »
Diari Semanal Mensual Anual Personalitzat
  Maxima: Minima: Mijana:
Temperatura: -17.8 °C -15.9 °C -14.1 °C
Rosada: -17.8 °C -17.4 °C -16.3 °C
Humitat: Humidity % 57 % 76 %
Velocitat del vent: 0 km/h 0 km/h 27.5 km/h
Racha vent: 0 km/h - -
Vent:- - NW
Pressio: 0 hPa 34740.4 hPa -
Pluja: 0 mm    
Historical Graphs
 
 
Tabular Data for Gener 27, 2018
Time Temperature Dew Point Pressure Wind Wind Speed Wind Gust Humidity Rainfall Rate (Hourly) solar Conditions
-17.8 °C -17.8 °C 0 hPa Calm     Humidity % 0 mm SolarRadiationWatts/m^2 W/m2 Conditions
00:02 -15 °C -16.2 °C 34740.4 hPa NW 59.5 km/h 59.5 km/h 86 % 0 mm 0.0 W/m2 RA
00:07 -15 °C -16.2 °C 34750.5 hPa NNW 50.7 km/h 50.7 km/h 86 % 0 mm 0.0 W/m2 CLR
00:12 -15 °C -16.2 °C 34750.5 hPa NNW 50.7 km/h 50.7 km/h 86 % 0 mm 0.0 W/m2 CLR
00:17 -15 °C -16.2 °C 34750.5 hPa NNW 51.8 km/h 51.8 km/h 86 % 0 mm 0.0 W/m2 CLR
00:22 -15 °C -16.2 °C 34750.5 hPa NW 38.8 km/h 38.8 km/h 86 % 0 mm 0.0 W/m2 CLR
00:27 -15 °C -16.2 °C 34750.5 hPa NW 68.6 km/h 68.6 km/h 86 % 0 mm 0.0 W/m2 CLR
00:32 -15 °C -16.2 °C 34750.5 hPa North 65.5 km/h 65.5 km/h 86 % 0 mm 0.0 W/m2 CLR
00:37 -15 °C -16.2 °C 34750.5 hPa NW 53.6 km/h 53.6 km/h 86 % 0 mm 0.0 W/m2 CLR
00:42 -15 °C -16.2 °C 34750.5 hPa NW 50.7 km/h 50.7 km/h 86 % 0 mm 0.0 W/m2 CLR
00:47 -15 °C -16.3 °C 34750.5 hPa NW 62.1 km/h 62.1 km/h 85 % 0 mm 0.0 W/m2 CLR
00:52 -15 °C -16.3 °C 34750.5 hPa NNW 50.7 km/h 50.7 km/h 85 % 0 mm 0.0 W/m2 CLR
00:57 -15 °C -16.3 °C 34750.5 hPa NW 62.1 km/h 62.1 km/h 85 % 0 mm 0.0 W/m2 CLR
01:02 -15 °C -16.3 °C 34750.5 hPa NW 38.8 km/h 38.8 km/h 85 % 0 mm 0.0 W/m2 CLR
01:07 -15 °C -16.3 °C 34750.5 hPa NW 50.7 km/h 50.7 km/h 85 % 0 mm 0.0 W/m2 CLR
01:12 -15 °C -16.3 °C 34750.5 hPa NW 50.7 km/h 50.7 km/h 85 % 0 mm 0.0 W/m2 CLR
01:17 -15 °C -16.3 °C 34750.5 hPa NW 47.6 km/h 47.6 km/h 85 % 0 mm 0.0 W/m2 CLR
01:22 -15 °C -16.3 °C 34750.5 hPa NNW 57 km/h 57 km/h 85 % 0 mm 0.0 W/m2 CLR
01:27 -15.3 °C -16.6 °C 34750.5 hPa NNW 50.7 km/h 50.7 km/h 85 % 0 mm 0.0 W/m2 CLR
01:32 -15.3 °C -16.6 °C 34750.5 hPa NW 49.2 km/h 49.2 km/h 85 % 0 mm 0.0 W/m2 CLR
01:37 -15 °C -16.3 °C 34760.7 hPa NW 65.5 km/h 65.5 km/h 85 % 0 mm 0.0 W/m2 CLR
01:42 -15 °C -16.3 °C 34750.5 hPa NNW 59.5 km/h 59.5 km/h 85 % 0 mm 0.0 W/m2 CLR
01:47 -15.3 °C -16.7 °C 34760.7 hPa NW 50.7 km/h 50.7 km/h 84 % 0 mm 0.0 W/m2 CLR
01:52 -15.3 °C -16.6 °C 34760.7 hPa NW 56.6 km/h 56.6 km/h 85 % 0 mm 0.0 W/m2 CLR
01:57 -15.3 °C -16.7 °C 34760.7 hPa NW 47.6 km/h 47.6 km/h 84 % 0 mm 0.0 W/m2 CLR
02:02 -15.3 °C -16.6 °C 34760.7 hPa WNW 50.7 km/h 50.7 km/h 85 % 0 mm 0.0 W/m2 CLR
02:07 -15.3 °C -16.6 °C 34760.7 hPa NW 47.6 km/h 47.6 km/h 85 % 0 mm 0.0 W/m2 CLR
02:12 -15.3 °C -16.6 °C 34774.2 hPa NW 50.7 km/h 50.7 km/h 85 % 0 mm 0.0 W/m2 CLR
02:17 -15.3 °C -16.6 °C 34774.2 hPa NW 50.7 km/h 50.7 km/h 85 % 0 mm 0.0 W/m2 CLR
02:22 -15.3 °C -16.6 °C 34774.2 hPa NW 50.7 km/h 50.7 km/h 85 % 0 mm 0.0 W/m2 CLR
02:27 -15.3 °C -16.6 °C 34774.2 hPa NW 47.6 km/h 47.6 km/h 85 % 0 mm 0.0 W/m2 CLR
02:32 -15.3 °C -16.6 °C 34774.2 hPa NW 47.6 km/h 47.6 km/h 85 % 0 mm 0.0 W/m2 CLR
02:37 -15.3 °C -16.6 °C 34774.2 hPa NW 44.1 km/h 44.1 km/h 85 % 0 mm 0.0 W/m2 CLR
02:42 -15.3 °C -16.7 °C 34774.2 hPa NW 38.8 km/h 38.8 km/h 84 % 0 mm 0.0 W/m2 CLR
02:47 -15.3 °C -16.7 °C 34774.2 hPa NW 44.7 km/h 44.7 km/h 84 % 0 mm 0.0 W/m2 CLR
02:52 -15.3 °C -16.7 °C 34774.2 hPa West 44.7 km/h 44.7 km/h 84 % 0 mm 0.0 W/m2 CLR
02:57 -15.3 °C -16.7 °C 34774.2 hPa NW 33.6 km/h 33.6 km/h 84 % 0 mm 0.0 W/m2 CLR
03:02 -15.3 °C -16.7 °C 34774.2 hPa NW 38.8 km/h 38.8 km/h 84 % 0 mm 0.0 W/m2 CLR
03:07 -15.3 °C -16.7 °C 34774.2 hPa WNW 36.2 km/h 36.2 km/h 84 % 0 mm 0.0 W/m2 CLR
03:12 -15.3 °C -16.7 °C 34774.2 hPa NW 47.6 km/h 47.6 km/h 84 % 0 mm 0.0 W/m2 CLR
03:17 -15.3 °C -16.6 °C 34774.2 hPa NNW 50.7 km/h 50.7 km/h 85 % 0 mm 0.0 W/m2 CLR
03:22 -15.3 °C -16.7 °C 34774.2 hPa NW 53.6 km/h 53.6 km/h 84 % 0 mm 0.0 W/m2 CLR
03:27 -15.3 °C -16.7 °C 34774.2 hPa NW 38.8 km/h 38.8 km/h 84 % 0 mm 0.0 W/m2 CLR
03:32 -15.3 °C -16.6 °C 34774.2 hPa NW 35.7 km/h 35.7 km/h 85 % 0 mm 0.0 W/m2 CLR
03:37 -15.3 °C -16.6 °C 34774.2 hPa NW 41.7 km/h 41.7 km/h 85 % 0 mm 0.0 W/m2 CLR
03:42 -15.3 °C -16.6 °C 34774.2 hPa NW 50.7 km/h 50.7 km/h 85 % 0 mm 0.0 W/m2 CLR
03:47 -15.3 °C -16.6 °C 34774.2 hPa NW 44.1 km/h 44.1 km/h 85 % 0 mm 0.0 W/m2 CLR
03:52 -15.3 °C -16.7 °C 34774.2 hPa WNW 38.8 km/h 38.8 km/h 84 % 0 mm 0.0 W/m2 CLR
03:57 -15.3 °C -16.7 °C 34774.2 hPa NW 41.7 km/h 41.7 km/h 84 % 0 mm 0.0 W/m2 CLR
04:02 -15.3 °C -16.6 °C 34774.2 hPa WNW 44.1 km/h 44.1 km/h 85 % 0 mm 0.0 W/m2 CLR
04:07 -15.3 °C -16.7 °C 34774.2 hPa NW 41.7 km/h 41.7 km/h 84 % 0 mm 0.0 W/m2 CLR
04:12 -15.3 °C -16.7 °C 34774.2 hPa NW 47.6 km/h 47.6 km/h 84 % 0 mm 0.0 W/m2 CLR
04:17 -15.3 °C -16.6 °C 34774.2 hPa NNW 50.7 km/h 50.7 km/h 85 % 0 mm 0.0 W/m2 CLR
04:22 -15.3 °C -16.6 °C 34774.2 hPa NNW 50.7 km/h 50.7 km/h 85 % 0 mm 0.0 W/m2 CLR
04:27 -15.3 °C -16.6 °C 34774.2 hPa NW 62.6 km/h 62.6 km/h 85 % 0 mm 0.0 W/m2 CLR
04:32 -15.3 °C -16.6 °C 34774.2 hPa NW 56.6 km/h 56.6 km/h 85 % 0 mm 0.0 W/m2 CLR
04:37 -15.3 °C -16.6 °C 34774.2 hPa NW 50.7 km/h 50.7 km/h 85 % 0 mm 0.0 W/m2 CLR
04:42 -15.3 °C -16.6 °C 34784.4 hPa NW 50.7 km/h 50.7 km/h 85 % 0 mm 0.0 W/m2 CLR
04:47 -15.3 °C -16.6 °C 34784.4 hPa WNW 56.6 km/h 56.6 km/h 85 % 0 mm 0.0 W/m2 CLR
04:52 -15.3 °C -16.6 °C 34784.4 hPa NW 44.7 km/h 44.7 km/h 85 % 0 mm 0.0 W/m2 CLR
04:58 -15.3 °C -16.6 °C 34784.4 hPa NW 50.7 km/h 50.7 km/h 85 % 0 mm 0.0 W/m2 CLR
05:03 -15.3 °C -16.6 °C 34784.4 hPa NW 47.6 km/h 47.6 km/h 85 % 0 mm 0.0 W/m2 CLR
05:08 -15.3 °C -16.6 °C 34784.4 hPa NW 59.5 km/h 59.5 km/h 85 % 0 mm 0.0 W/m2 CLR
05:13 -15.3 °C -16.6 °C 34784.4 hPa WNW 50.7 km/h 50.7 km/h 85 % 0 mm 0.0 W/m2 CLR
05:18 -15.3 °C -16.6 °C 34784.4 hPa WNW 47.6 km/h 47.6 km/h 85 % 0 mm 0.0 W/m2 CLR
05:23 -15.3 °C -16.6 °C 34797.9 hPa NW 41.7 km/h 41.7 km/h 85 % 0 mm 0.0 W/m2 CLR
05:28 -15.3 °C -16.6 °C 34797.9 hPa NW 50.7 km/h 50.7 km/h 85 % 0 mm 0.0 W/m2 CLR
05:33 -15.3 °C -16.7 °C 34797.9 hPa WNW 53.6 km/h 53.6 km/h 84 % 0 mm 0.0 W/m2 CLR
05:38 -15.3 °C -16.7 °C 34797.9 hPa WNW 35.7 km/h 35.7 km/h 84 % 0 mm 0.0 W/m2 CLR
05:43 -15.3 °C -16.7 °C 34797.9 hPa WNW 29.8 km/h 29.8 km/h 84 % 0 mm 0.0 W/m2 CLR
05:48 -15.3 °C -16.7 °C 34797.9 hPa NW 38.8 km/h 38.8 km/h 84 % 0 mm 0.0 W/m2 CLR
05:53 -15.3 °C -16.7 °C 34797.9 hPa NW 35.7 km/h 35.7 km/h 84 % 0 mm 0.0 W/m2 CLR
05:58 -15.3 °C -16.7 °C 34797.9 hPa NW 36.2 km/h 36.2 km/h 84 % 0 mm 0.0 W/m2 CLR
06:03 -15.3 °C -16.7 °C 34797.9 hPa NW 38.8 km/h 38.8 km/h 84 % 0 mm 0.0 W/m2 CLR
06:08 -15.3 °C -16.7 °C 34797.9 hPa WNW 35.7 km/h 35.7 km/h 84 % 0 mm 0.0 W/m2 CLR
06:13 -15.3 °C -16.7 °C 34797.9 hPa WNW 44.7 km/h 44.7 km/h 84 % 0 mm 0.0 W/m2 CLR
06:18 -15.3 °C -16.7 °C 34808.1 hPa WNW 38.8 km/h 38.8 km/h 84 % 0 mm 0.0 W/m2 CLR
06:23 -15.3 °C -16.7 °C 34808.1 hPa NW 38.8 km/h 38.8 km/h 84 % 0 mm 0.0 W/m2 CLR
06:28 -15.3 °C -16.7 °C 34797.9 hPa WNW 38.8 km/h 38.8 km/h 84 % 0 mm 0.0 W/m2 CLR
06:33 -15.3 °C -16.7 °C 34808.1 hPa WNW 41.7 km/h 41.7 km/h 84 % 0 mm 0.0 W/m2 CLR
06:38 -15.3 °C -16.7 °C 34808.1 hPa NW 29.8 km/h 29.8 km/h 84 % 0 mm 0.0 W/m2 CLR
06:43 -15.6 °C -17.1 °C 34808.1 hPa WNW 25.9 km/h 25.9 km/h 83 % 0 mm 0.0 W/m2 CLR
06:48 -15.6 °C -17.1 °C 34808.1 hPa WNW 38.8 km/h 38.8 km/h 83 % 0 mm 0.0 W/m2 CLR
06:53 -15.6 °C -17 °C 34808.1 hPa West 29.8 km/h 29.8 km/h 84 % 0 mm 0.0 W/m2 CLR
06:58 -15.6 °C -17 °C 34808.1 hPa NW 26.9 km/h 26.9 km/h 84 % 0 mm 0.0 W/m2 CLR
07:03 -15.6 °C -17 °C 34818.2 hPa NW 32.8 km/h 32.8 km/h 84 % 0 mm 0.0 W/m2 CLR
07:08 -15.6 °C -17 °C 34808.1 hPa NW 25.9 km/h 25.9 km/h 84 % 0 mm 0.0 W/m2 CLR
07:13 -15.6 °C -17 °C 34808.1 hPa WNW 35.7 km/h 35.7 km/h 84 % 0 mm 0.0 W/m2 CLR
07:18 -15.6 °C -17 °C 34818.2 hPa ESE 23.8 km/h 23.8 km/h 84 % 0 mm 0.0 W/m2 CLR
07:23 -15.6 °C -17 °C 34818.2 hPa ESE 23.8 km/h 23.8 km/h 84 % 0 mm 0.0 W/m2 CLR
07:28 -15.6 °C -17 °C 34818.2 hPa NW 26.9 km/h 26.9 km/h 84 % 0 mm 0.0 W/m2 CLR
07:33 -15.6 °C -17 °C 34831.8 hPa ESE 33.6 km/h 33.6 km/h 84 % 0 mm 0.0 W/m2 CLR
07:38 -15.6 °C -17 °C 34831.8 hPa ESE 35.7 km/h 35.7 km/h 84 % 0 mm 0.0 W/m2 CLR
07:43 -15.9 °C -17.3 °C 34841.9 hPa NW 23.8 km/h 23.8 km/h 84 % 0 mm 0.0 W/m2 CLR
07:48 -15.6 °C -17 °C 34841.9 hPa NW 15.6 km/h 15.6 km/h 84 % 0 mm 0.0 W/m2 CLR
07:53 -15.9 °C -17.3 °C 34852.1 hPa ESE 29.8 km/h 29.8 km/h 84 % 0 mm 0.0 W/m2 CLR
07:58 -15.9 °C -17.3 °C 34852.1 hPa NW 29.8 km/h 29.8 km/h 84 % 0 mm 0.0 W/m2 CLR
08:03 -15.9 °C -17.4 °C 34852.1 hPa NW 29.8 km/h 29.8 km/h 83 % 0 mm 0.0 W/m2 CLR
08:08 -15.6 °C -17.1 °C 34841.9 hPa NW 38.8 km/h 38.8 km/h 83 % 0 mm 0.0 W/m2 OVC
08:13 -15.6 °C -17.1 °C 34841.9 hPa ESE 41.7 km/h 41.7 km/h 83 % 0 mm 0.0 W/m2 OVC
08:18 -15.6 °C -17.1 °C 34841.9 hPa NW 41.7 km/h 41.7 km/h 83 % 0 mm 5.0 W/m2 OVC
08:23 -15.9 °C -17.4 °C 34841.9 hPa ESE 38.8 km/h 38.8 km/h 83 % 0 mm 7.0 W/m2 OVC
08:28 -15.6 °C -17.1 °C 34852.1 hPa ESE 38.8 km/h 38.8 km/h 83 % 0 mm 9.0 W/m2 BKN
08:33 -15.6 °C -17.1 °C 34852.1 hPa NNW 44.7 km/h 44.7 km/h 83 % 0 mm 11.0 W/m2 BKN
08:38 -15.6 °C -17.1 °C 34852.1 hPa ESE 41.7 km/h 41.7 km/h 83 % 0 mm 14.0 W/m2 BKN
08:43 -15.6 °C -17.1 °C 34852.1 hPa ESE 38.8 km/h 38.8 km/h 83 % 0 mm 18.0 W/m2 BKN
08:48 -15.6 °C -17.1 °C 34865.6 hPa NW 23.8 km/h 23.8 km/h 83 % 0 mm 25.0 W/m2 BKN
08:53 -15.6 °C -17.1 °C 34865.6 hPa ESE 29.8 km/h 29.8 km/h 83 % 0 mm 33.0 W/m2 BKN
08:58 -15.6 °C -17.1 °C 34865.6 hPa ESE 26.9 km/h 26.9 km/h 83 % 0 mm 44.0 W/m2 BKN
09:03 -15.6 °C -17.1 °C 34875.8 hPa WNW 28.5 km/h 28.5 km/h 83 % 0 mm 53.0 W/m2 SCT
09:08 -15.6 °C -17.2 °C 34875.8 hPa WNW 35.7 km/h 35.7 km/h 82 % 0 mm 70.0 W/m2 FEW
09:13 -15.3 °C -16.9 °C 34875.8 hPa NW 38.8 km/h 38.8 km/h 82 % 0 mm 83.0 W/m2 FEW
09:18 -15.3 °C -16.9 °C 34875.8 hPa NW 36.2 km/h 36.2 km/h 82 % 0 mm 97.0 W/m2 FEW
09:23 -15.3 °C -17 °C 34875.8 hPa WNW 36.2 km/h 36.2 km/h 81 % 0 mm 111.0 W/m2 CLR
09:28 -15 °C -16.7 °C 34875.8 hPa NW 36.2 km/h 36.2 km/h 81 % 0 mm 104.0 W/m2 CLR
09:33 -15 °C -16.7 °C 34875.8 hPa NW 36.2 km/h 36.2 km/h 81 % 0 mm 144.0 W/m2 CLR
09:38 -15 °C -16.7 °C 34889.3 hPa WNW 38.8 km/h 38.8 km/h 81 % 0 mm 160.0 W/m2 CLR
09:43 -15 °C -16.8 °C 34889.3 hPa NW 38.8 km/h 38.8 km/h 80 % 0 mm 114.0 W/m2 CLR
09:48 -14.7 °C -16.4 °C 34889.3 hPa NW 29.8 km/h 29.8 km/h 80 % 0 mm 151.0 W/m2 CLR
09:53 -14.7 °C -16.4 °C 34889.3 hPa NW 32.8 km/h 32.8 km/h 80 % 0 mm 127.0 W/m2 CLR
09:58 -14.7 °C -16.4 °C 34889.3 hPa NW 35.7 km/h 35.7 km/h 80 % 0 mm 250.0 W/m2 CLR
10:03 -14.7 °C -16.4 °C 34889.3 hPa NW 35.7 km/h 35.7 km/h 80 % 0 mm 283.0 W/m2 CLR
10:08 -14.4 °C -16.2 °C 34889.3 hPa NW 41.7 km/h 41.7 km/h 80 % 0 mm 306.0 W/m2 CLR
10:13 -14.4 °C -16.2 °C 34899.5 hPa WNW 41.4 km/h 41.4 km/h 80 % 0 mm 181.0 W/m2 CLR
10:18 -14.4 °C -16.3 °C 34899.5 hPa NW 53.6 km/h 53.6 km/h 79 % 0 mm 209.0 W/m2 CLR
10:23 -14.4 °C -16.3 °C 34899.5 hPa NW 38.8 km/h 38.8 km/h 79 % 0 mm 241.0 W/m2 CLR
10:28 -14.4 °C -16.3 °C 34899.5 hPa NW 35.7 km/h 35.7 km/h 79 % 0 mm 156.0 W/m2 CLR
10:33 -14.1 °C -15.9 °C 34909.7 hPa NW 29.8 km/h 29.8 km/h 79 % 0 mm 380.0 W/m2 CLR
10:38 -14.1 °C -15.9 °C 34909.7 hPa NW 44.7 km/h 44.7 km/h 79 % 0 mm 330.0 W/m2 CLR
10:43 -14.1 °C -16.1 °C 34909.7 hPa NW 35.7 km/h 35.7 km/h 78 % 0 mm 171.0 W/m2 CLR
10:48 -14.1 °C -16.1 °C 34923.2 hPa NNW 41.7 km/h 41.7 km/h 78 % 0 mm 214.0 W/m2 CLR
10:53 -14.1 °C -16.1 °C 34923.2 hPa NW 20.9 km/h 20.9 km/h 78 % 0 mm 346.0 W/m2 CLR
10:58 -13.8 °C -15.7 °C 34923.2 hPa NNW 26.9 km/h 26.9 km/h 78 % 0 mm 241.0 W/m2 CLR
11:03 -13.8 °C -15.7 °C 34923.2 hPa NW 29.8 km/h 29.8 km/h 78 % 0 mm 211.0 W/m2 CLR
11:08 -13.8 °C -15.7 °C 34923.2 hPa NW 23.8 km/h 23.8 km/h 78 % 0 mm 392.0 W/m2 CLR
11:13 -13.8 °C -15.9 °C 34923.2 hPa NNW 35.7 km/h 35.7 km/h 77 % 0 mm 462.0 W/m2 CLR
11:18 -13.4 °C -15.6 °C 34923.2 hPa NW 32.8 km/h 32.8 km/h 77 % 0 mm 378.0 W/m2 CLR
11:24 -13.4 °C -15.6 °C 34923.2 hPa NW 35.7 km/h 36 km/h 77 % 0 mm 464.0 W/m2 CLR
11:29 -13.4 °C -15.7 °C 34923.2 hPa NNW 41.7 km/h 41.7 km/h 76 % 0 mm 527.0 W/m2 CLR
11:34 -13.2 °C -15.4 °C 34923.2 hPa NNW 28.5 km/h 28.5 km/h 75 % 0 mm 292.0 W/m2 CLR
11:39 -13.2 °C -15.4 °C 34933.4 hPa North 29.8 km/h 29.8 km/h 75 % 0 mm 519.0 W/m2 CLR
11:44 -13.2 °C -15.4 °C 34933.4 hPa NNW 23.8 km/h 23.8 km/h 75 % 0 mm 383.0 W/m2 CLR
11:49 -13.2 °C -15.7 °C 34933.4 hPa NNW 32.8 km/h 32.8 km/h 73 % 0 mm 216.0 W/m2 CLR
11:54 -13.2 °C -15.4 °C 34933.4 hPa NNW 28.5 km/h 28.5 km/h 75 % 0 mm 345.0 W/m2 CLR
11:59 -13.2 °C -15.4 °C 34946.9 hPa NNW 29.8 km/h 29.8 km/h 75 % 0 mm 605.0 W/m2 CLR
12:04 -12.8 °C -15.3 °C 34946.9 hPa WNW 23.8 km/h 23.8 km/h 74 % 0 mm 311.0 W/m2 CLR
12:09 -12.8 °C -15.3 °C 34946.9 hPa NNW 29.8 km/h 29.8 km/h 74 % 0 mm 385.0 W/m2 CLR
12:14 -12.6 °C -15.1 °C 34946.9 hPa NW 26.9 km/h 26.9 km/h 73 % 0 mm 455.0 W/m2 CLR
12:19 -12.8 °C -15.3 °C 34933.4 hPa NNW 29.8 km/h 29.8 km/h 74 % 0 mm 476.0 W/m2 CLR
12:24 -12.8 °C -15.3 °C 34933.4 hPa WNW 26.9 km/h 26.9 km/h 74 % 0 mm 404.0 W/m2 CLR
12:29 -12.8 °C -15.5 °C 34933.4 hPa NNW 32.8 km/h 32.8 km/h 72 % 0 mm 241.0 W/m2 CLR
12:34 -12.8 °C -15.6 °C 34933.4 hPa North 31.1 km/h 31.1 km/h 71 % 0 mm 403.0 W/m2 CLR
12:39 -12.6 °C -15.2 °C 34933.4 hPa North 29.8 km/h 29.8 km/h 72 % 0 mm 538.0 W/m2 CLR
12:44 -12.6 °C -15.1 °C 34933.4 hPa NW 31.1 km/h 31.1 km/h 73 % 0 mm 476.0 W/m2 CLR
12:49 -12.6 °C -15.4 °C 34946.9 hPa NNW 20.8 km/h 20.8 km/h 70 % 0 mm 432.0 W/m2 CLR
12:54 -12.6 °C -15.5 °C 34933.4 hPa NW 29.8 km/h 29.8 km/h 69 % 0 mm 250.0 W/m2 CLR
12:59 -12.6 °C -15.4 °C 34933.4 hPa Calm     70 % 0 mm 269.0 W/m2 CLR
13:04 -12.6 °C -15.5 °C 34933.4 hPa NNW 26.9 km/h 26.9 km/h 69 % 0 mm 380.0 W/m2 CLR
13:09 -12.2 °C -15 °C 34933.4 hPa NNW 29.8 km/h 29.8 km/h 71 % 0 mm 540.0 W/m2 CLR
13:14 -12.2 °C -15.1 °C 34933.4 hPa NNW 26.9 km/h 26.9 km/h 70 % 0 mm 469.0 W/m2 CLR
13:19 -12.2 °C -15.4 °C 34933.4 hPa NNW 26.9 km/h 26.9 km/h 67 % 0 mm 323.0 W/m2 CLR
13:24 -12.2 °C -15.6 °C 34933.4 hPa Calm     66 % 0 mm 353.0 W/m2 CLR
13:29 -12.2 °C -15.4 °C 34933.4 hPa NNW 32.8 km/h 32.8 km/h 68 % 0 mm 439.0 W/m2 CLR
13:34 -12.2 °C -15.4 °C 34923.2 hPa NW 29.8 km/h 29.8 km/h 67 % 0 mm 575.0 W/m2 CLR
13:39 -11.9 °C -15.6 °C 34923.2 hPa NW 23.8 km/h 23.8 km/h 64 % 0 mm 578.0 W/m2 CLR
13:44 -11.9 °C -15.2 °C 34909.7 hPa NW 29.8 km/h 29.8 km/h 67 % 0 mm 526.0 W/m2 CLR
13:49 -11.9 °C -15.4 °C 34923.2 hPa NW 23.8 km/h 23.8 km/h 65 % 0 mm 445.0 W/m2 CLR
13:54 -11.9 °C -15.1 °C 34909.7 hPa North 29.8 km/h 29.8 km/h 68 % 0 mm 476.0 W/m2 CLR
13:59 -11.9 °C -15.3 °C 34909.7 hPa NNW 35.7 km/h 35.7 km/h 66 % 0 mm 490.0 W/m2 CLR
14:04 -11.9 °C -15.4 °C 34909.7 hPa NW 23.3 km/h 23.3 km/h 65 % 0 mm 515.0 W/m2 CLR
14:09 -11.6 °C -15 °C 34909.7 hPa NW 20.9 km/h 20.9 km/h 66 % 0 mm 619.0 W/m2 CLR
14:14 -11.6 °C -15 °C 34909.7 hPa NW 29.8 km/h 29.8 km/h 66 % 0 mm 376.0 W/m2 CLR
14:19 -11.9 °C -15.6 °C 34909.7 hPa NNE 29.8 km/h 29.8 km/h 64 % 0 mm 320.0 W/m2 CLR
14:24 -11.9 °C -15.6 °C 34899.5 hPa NNW 32.8 km/h 32.8 km/h 64 % 0 mm 279.0 W/m2 CLR
14:29 -11.9 °C -15.4 °C 34909.7 hPa North 26.9 km/h 26.9 km/h 65 % 0 mm 265.0 W/m2 CLR
14:34 -11.6 °C -15.2 °C 34909.7 hPa NW 15.6 km/h 15.6 km/h 64 % 0 mm 251.0 W/m2 CLR
14:39 -11.9 °C -15.6 °C 34899.5 hPa NW 20.9 km/h 20.9 km/h 64 % 0 mm 236.0 W/m2 CLR
14:44 -11.9 °C -15.4 °C 34899.5 hPa NNW 20.9 km/h 20.9 km/h 65 % 0 mm 216.0 W/m2 CLR
14:49 -11.9 °C -15.7 °C 34909.7 hPa NNW 26.9 km/h 26.9 km/h 63 % 0 mm 202.0 W/m2 CLR
14:54 -11.9 °C -15.9 °C 34909.7 hPa North 17.9 km/h 17.9 km/h 61 % 0 mm 178.0 W/m2 CLR
14:59 -11.9 °C -15.7 °C 34909.7 hPa North 33.6 km/h 33.6 km/h 63 % 0 mm 155.0 W/m2 CLR
15:04 -11.9 °C -15.8 °C 34909.7 hPa NNW 26.9 km/h 26.9 km/h 62 % 0 mm 127.0 W/m2 CLR
15:09 -11.9 °C -15.8 °C 34909.7 hPa NNW 29.8 km/h 29.8 km/h 62 % 0 mm 127.0 W/m2 CLR
15:14 -11.9 °C -15.8 °C 34923.2 hPa NNW 29.8 km/h 29.8 km/h 62 % 0 mm 128.0 W/m2 CLR
15:19 -12.2 °C -16.1 °C 34923.2 hPa NNW 23.8 km/h 23.8 km/h 62 % 0 mm 128.0 W/m2 CLR
15:24 -12.2 °C -15.9 °C 34923.2 hPa NNW 20.9 km/h 20.9 km/h 63 % 0 mm 123.0 W/m2 CLR
15:29 -12.2 °C -16.1 °C 34923.2 hPa NNW 23.8 km/h 23.8 km/h 62 % 0 mm 121.0 W/m2 CLR
15:34 -12.2 °C -16.1 °C 34923.2 hPa NNW 20.8 km/h 20.8 km/h 62 % 0 mm 132.0 W/m2 CLR
15:39 -12.2 °C -16.1 °C 34923.2 hPa NNW 29.8 km/h 29.8 km/h 62 % 0 mm 151.0 W/m2 CLR
15:44 -11.9 °C -15.9 °C 34933.4 hPa NNW 28.5 km/h 28.5 km/h 61 % 0 mm 149.0 W/m2 CLR
15:49 -11.9 °C -16.1 °C 34933.4 hPa North 26.9 km/h 26.9 km/h 60 % 0 mm 149.0 W/m2 CLR
15:54 -11.9 °C -15.8 °C 34933.4 hPa North 17.9 km/h 17.9 km/h 62 % 0 mm 141.0 W/m2 CLR
15:59 -11.9 °C -15.9 °C 34933.4 hPa NNW 17.9 km/h 17.9 km/h 61 % 0 mm 135.0 W/m2 CLR
16:04 -11.9 °C -15.8 °C 34946.9 hPa NNW 20.9 km/h 20.9 km/h 62 % 0 mm 139.0 W/m2 CLR
16:09 -11.9 °C -15.8 °C 34933.4 hPa Calm     62 % 0 mm 146.0 W/m2 CLR
16:14 -11.9 °C -16.2 °C 34933.4 hPa North 23.8 km/h 23.8 km/h 59 % 0 mm 232.0 W/m2 CLR
16:19 -11.9 °C -15.9 °C 34933.4 hPa NNW 23.8 km/h 23.8 km/h 61 % 0 mm 148.0 W/m2 CLR
16:24 -11.9 °C -16.1 °C 34933.4 hPa NNW 20.9 km/h 20.9 km/h 60 % 0 mm 197.0 W/m2 CLR
16:29 -11.9 °C -16.2 °C 34933.4 hPa NNW 23.8 km/h 23.8 km/h 59 % 0 mm 223.0 W/m2 CLR
16:34 -11.9 °C -16.4 °C 34946.9 hPa NNW 20.9 km/h 20.9 km/h 57 % 0 mm 216.0 W/m2 CLR
16:39 -11.9 °C -16.4 °C 34933.4 hPa NNW 23.8 km/h 23.8 km/h 57 % 0 mm 155.0 W/m2 CLR
16:44 -12.2 °C -16.6 °C 34933.4 hPa NW 23.8 km/h 23.8 km/h 58 % 0 mm 183.0 W/m2 CLR
16:49 -12.2 °C -16.3 °C 34946.9 hPa NNW 17.9 km/h 17.9 km/h 60 % 0 mm 74.0 W/m2 CLR
16:54 -12.6 °C -16.6 °C 34946.9 hPa NNW 17.9 km/h 17.9 km/h 60 % 0 mm 70.0 W/m2 FEW
16:59 -12.6 °C -16.6 °C 34946.9 hPa NW 15.6 km/h 15.6 km/h 60 % 0 mm 86.0 W/m2 FEW
17:04 -12.6 °C -16.5 °C 34957.1 hPa NNW 9 km/h 9 km/h 61 % 0 mm 40.0 W/m2 CLR
17:10 -12.8 °C -16.8 °C 34957.1 hPa NW 3.1 km/h 3.1 km/h 61 % 0 mm 42.0 W/m2 SCT
17:14 -12.8 °C -16.9 °C 34957.1 hPa NW 3.1 km/h   60 % 0 mm 53.0 W/m2 SCT
17:19 -12.8 °C -16.7 °C 34957.1 hPa Calm     62 % 0 mm 65.0 W/m2 SCT
17:25 -12.8 °C -16.7 °C 34957.1 hPa Calm     62 % 0 mm 56.0 W/m2 SCT
17:26 -12.8 °C -16.7 °C 34957.1 hPa Calm     62 % 0 mm 53.0 W/m2 SCT
17:31 -12.8 °C -16.7 °C 34957.1 hPa Calm     62 % 0 mm 39.0 W/m2 BKN
17:36 -12.8 °C -16.7 °C 34967.2 hPa Calm     62 % 0 mm 32.0 W/m2 BKN
17:41 -12.8 °C -16.7 °C 34967.2 hPa NW 3.1 km/h   62 % 0 mm 25.0 W/m2 BKN
17:46 -12.8 °C -16.6 °C 34967.2 hPa Calm     63 % 0 mm 19.0 W/m2 BKN
17:51 -13.2 °C -16.6 °C 34967.2 hPa Calm     65 % 0 mm 14.0 W/m2 BKN
17:56 -13.2 °C -16.3 °C 34967.2 hPa Calm     67 % 0 mm 9.0 W/m2 BKN
18:01 -13.4 °C -16.6 °C 34967.2 hPa Calm     68 % 0 mm 5.0 W/m2 BKN
18:06 -13.4 °C -16.6 °C 34967.2 hPa WNW 6 km/h 6 km/h 67 % 0 mm 5.0 W/m2 OVC
18:11 -13.8 °C -16.9 °C 34980.8 hPa Calm     67 % 0 mm 0.0 W/m2 OVC
18:16 -13.8 °C -16.8 °C 34980.8 hPa Calm     68 % 0 mm 0.0 W/m2 OVC
18:21 -13.8 °C -16.7 °C 34980.8 hPa Calm     69 % 0 mm 0.0 W/m2 CLR
18:26 -13.8 °C -16.6 °C 34980.8 hPa WNW 3.1 km/h   70 % 0 mm 0.0 W/m2 CLR
18:31 -13.8 °C -16.6 °C 34980.8 hPa Calm   0.3 km/h 70 % 0 mm 0.0 W/m2 CLR
18:36 -13.8 °C -16.6 °C 34990.9 hPa Calm     70 % 0 mm 0.0 W/m2 CLR
18:41 -13.8 °C -16.3 °C 34990.9 hPa Calm     73 % 0 mm 0.0 W/m2 CLR
18:46 -13.8 °C -16.3 °C 34990.9 hPa Calm     73 % 0 mm 0.0 W/m2 CLR
18:51 -13.8 °C -16.3 °C 35001.1 hPa Calm     73 % 0 mm 0.0 W/m2 CLR
18:56 -13.8 °C -16.3 °C 35001.1 hPa Calm     73 % 0 mm 0.0 W/m2 CLR
18:58 -13.8 °C -16.3 °C 35001.1 hPa Calm     73 % 0 mm 0.0 W/m2 CLR
19:03 -14.1 °C -16.6 °C 35001.1 hPa Calm     73 % 0 mm 0.0 W/m2 CLR
19:08 -14.1 °C -16.6 °C 35014.6 hPa Calm     73 % 0 mm 0.0 W/m2 CLR
19:13 -13.8 °C -16.3 °C 35024.8 hPa Calm     73 % 0 mm 0.0 W/m2 CLR
19:18 -13.8 °C -16.4 °C 35014.6 hPa Calm     72 % 0 mm 0.0 W/m2 CLR
19:23 -13.8 °C -16.5 °C 35024.8 hPa Calm     71 % 0 mm 0.0 W/m2 CLR
19:28 -13.8 °C -16.6 °C 35024.8 hPa Calm     70 % 0 mm 0.0 W/m2 CLR
19:33 -13.8 °C -16.5 °C 35024.8 hPa NNW 3.1 km/h 3.1 km/h 71 % 0 mm 0.0 W/m2 CLR
19:38 -14.1 °C -16.9 °C 35038.3 hPa NNW 17.9 km/h 17.9 km/h 70 % 0 mm 0.0 W/m2 CLR
19:43 -13.8 °C -16.7 °C 35038.3 hPa NNW 20.9 km/h 20.9 km/h 69 % 0 mm 0.0 W/m2 CLR
19:48 -13.8 °C -16.7 °C 35038.3 hPa NNW 31.1 km/h 31.1 km/h 69 % 0 mm 0.0 W/m2 CLR
19:53 -13.4 °C -16.4 °C 35038.3 hPa NNW 32.8 km/h 32.8 km/h 69 % 0 mm 0.0 W/m2 CLR
19:58 -13.4 °C -16.4 °C 35038.3 hPa NNW 38.8 km/h 38.8 km/h 69 % 0 mm 0.0 W/m2 CLR
20:03 -13.4 °C -16.3 °C 35038.3 hPa NNW 33.6 km/h 33.6 km/h 70 % 0 mm 0.0 W/m2 CLR
20:08 -13.4 °C -16.4 °C 35048.5 hPa NW 41.7 km/h 41.7 km/h 69 % 0 mm 0.0 W/m2 CLR
20:13 -13.4 °C -16.3 °C 35048.5 hPa NNW 38.8 km/h 38.8 km/h 70 % 0 mm 0.0 W/m2 CLR
20:18 -13.4 °C -16.2 °C 35048.5 hPa NNW 41.7 km/h 41.7 km/h 71 % 0 mm 0.0 W/m2 CLR
20:23 -13.4 °C -16.2 °C 35058.6 hPa NNW 32.8 km/h 32.8 km/h 71 % 0 mm 0.0 W/m2 CLR
20:28 -13.4 °C -16.2 °C 35058.6 hPa North 38.8 km/h 38.8 km/h 71 % 0 mm 0.0 W/m2 CLR
20:29 -13.8 °C -16.5 °C 35058.6 hPa NNW 31.1 km/h 31.1 km/h 71 % 0 mm 0.0 W/m2 CLR
20:34 -13.8 °C -16.6 °C 35058.6 hPa North 3.1 km/h 3.1 km/h 70 % 0 mm 0.0 W/m2 CLR
20:39 -13.4 °C -16.2 °C 35058.6 hPa NW 3.1 km/h 3.1 km/h 71 % 0 mm 0.0 W/m2 CLR
20:44 -13.4 °C -16.2 °C 35058.6 hPa Calm     71 % 0 mm 0.0 W/m2 CLR
20:49 -13.4 °C -16.2 °C 35058.6 hPa NNW 23.8 km/h 23.8 km/h 71 % 0 mm 0.0 W/m2 CLR
20:54 -13.8 °C -16.5 °C 35058.6 hPa NW 20.9 km/h 20.9 km/h 71 % 0 mm 0.0 W/m2 CLR
20:59 -13.8 °C -16.4 °C 35072.2 hPa WNW 3.1 km/h 3.1 km/h 72 % 0 mm 0.0 W/m2 CLR
21:04 -13.8 °C -16.4 °C 35072.2 hPa NNW 3.1 km/h   72 % 0 mm 0.0 W/m2 CLR
21:09 -13.8 °C -16.3 °C 35072.2 hPa NW 2.6 km/h 2.6 km/h 73 % 0 mm 0.0 W/m2 CLR
21:14 -13.8 °C -16.3 °C 35072.2 hPa WNW 9 km/h 9 km/h 73 % 0 mm 0.0 W/m2 CLR
21:19 -13.8 °C -16.3 °C 35072.2 hPa West 6 km/h 6 km/h 73 % 0 mm 0.0 W/m2 CLR
21:24 -13.8 °C -16.3 °C 35072.2 hPa NW 11.9 km/h 11.9 km/h 73 % 0 mm 0.0 W/m2 CLR
21:29 -13.8 °C -16.3 °C 35072.2 hPa WNW 15.6 km/h 15.6 km/h 73 % 0 mm 0.0 W/m2 CLR
21:34 -13.8 °C -16.3 °C 35082.3 hPa WNW 7.7 km/h 7.7 km/h 73 % 0 mm 0.0 W/m2 CLR
21:39 -13.8 °C -16.2 °C 35082.3 hPa NW 9 km/h 9 km/h 74 % 0 mm 0.0 W/m2 CLR
21:44 -13.8 °C -16.2 °C 35082.3 hPa WNW 3.1 km/h   74 % 0 mm 0.0 W/m2 CLR
21:49 -13.8 °C -16.2 °C 35082.3 hPa Calm     74 % 0 mm 0.0 W/m2 CLR
21:54 -13.8 °C -16.2 °C 35082.3 hPa WNW 9 km/h 9 km/h 74 % 0 mm 0.0 W/m2 CLR
21:59 -13.8 °C -16.2 °C 35082.3 hPa Calm     74 % 0 mm 0.0 W/m2 CLR
22:04 -13.8 °C -16.1 °C 35082.3 hPa Calm     75 % 0 mm 0.0 W/m2 CLR
22:09 -14.1 °C -16.5 °C 35095.9 hPa NW 6 km/h 6 km/h 74 % 0 mm 0.0 W/m2 CLR
22:14 -14.1 °C -16.5 °C 35095.9 hPa Calm     74 % 0 mm 0.0 W/m2 CLR
22:19 -14.1 °C -16.3 °C 35106 hPa Calm     75 % 0 mm 0.0 W/m2 CLR
22:24 -14.1 °C -16.3 °C 35106 hPa Calm     75 % 0 mm 0.0 W/m2 CLR
22:29 -14.1 °C -16.3 °C 35106 hPa Calm     75 % 0 mm 0.0 W/m2 CLR
22:34 -14.4 °C -16.7 °C 35106 hPa Calm     75 % 0 mm 0.0 W/m2 CLR
22:39 -14.4 °C -16.6 °C 35106 hPa Calm     76 % 0 mm 0.0 W/m2 CLR
22:44 -14.4 °C -16.6 °C 35116.2 hPa Calm     76 % 0 mm 0.0 W/m2 CLR
22:49 -14.4 °C -16.4 °C 35116.2 hPa Calm     77 % 0 mm 0.0 W/m2 CLR
22:54 -14.4 °C -16.4 °C 35116.2 hPa WNW 3.1 km/h 3.1 km/h 77 % 0 mm 0.0 W/m2 CLR
22:59 -14.1 °C -16.1 °C 35116.2 hPa Calm     78 % 0 mm 0.0 W/m2 CLR
23:04 -14.1 °C -16.1 °C 35116.2 hPa Calm     78 % 0 mm 0.0 W/m2 CLR
23:09 -14.1 °C -16.1 °C 35116.2 hPa Calm     78 % 0 mm 0.0 W/m2 CLR
23:14 -14.1 °C -15.9 °C 35116.2 hPa Calm     79 % 0 mm 0.0 W/m2 CLR
23:19 -14.1 °C -15.9 °C 35116.2 hPa WNW 3.1 km/h   79 % 0 mm 0.0 W/m2 CLR
23:24 -14.1 °C -15.9 °C 35116.2 hPa Calm     79 % 0 mm 0.0 W/m2 CLR
23:29 -14.1 °C -15.9 °C 35116.2 hPa Calm     79 % 0 mm 0.0 W/m2 CLR
23:34 -14.1 °C -15.9 °C 35116.2 hPa Calm     79 % 0 mm 0.0 W/m2 CLR
23:39 -14.1 °C -15.9 °C 35116.2 hPa Calm     79 % 0 mm 0.0 W/m2 CLR
23:44 -14.1 °C -15.9 °C 35116.2 hPa WNW 9 km/h 9 km/h 80 % 0 mm 0.0 W/m2 CLR
23:49 -14.4 °C -16.3 °C 35116.2 hPa WNW 9 km/h 9 km/h 79 % 0 mm 0.0 W/m2 CLR
23:54 -14.4 °C -16.3 °C 35116.2 hPa WNW 6 km/h 6 km/h 79 % 0 mm 0.0 W/m2 CLR
23:59 -14.4 °C -16.3 °C 35129.8 hPa Calm     79 % 0 mm 0.0 W/m2 CLR
Lo Temps de Massalio
Compliments of Weather Underground - 1.25 mb